• Join FlightAware (Why Join?)
  • Login
  • US Flag 
03:18PM EDT


 

Airport Tracker/Info


-or-


 

Live Flight TrackerFlight Track Log ✈ N102WY ✈ 31-Oct-2013 ✈ KICT - KCYS

Flight Track Log - Related Links

Times and Time Zones

All times are in EDT time to prevent confusion due to time zone crossing. See the N102WY flight status page for this flight to view local times or setup timezone preferences in your user account.

Time Position Orientation Groundspeed Altitude Reporting Facility
EDT Latitude Longitude Course Direction KTS MPH feet Rate Location/Type
07:50PM 37.6644 -97.4161 297° West 189 217 2,100  Level Kansas City Center
07:50PM 37.6817 -97.4189 353° North 196 226 3,400 3,300 Climbing Kansas City Center
07:51PM 37.7208 -97.4522 326° Northwest 235 270 5,800 3,000 Climbing Kansas City Center
07:52PM 37.7492 -97.5261 296° West 234 269 8,900 3,900 Climbing Kansas City Center
07:53PM 37.7875 -97.5986 304° West 244 281 13,900 4,140 Climbing Kansas City Center
07:54PM 37.8261 -97.6725 304° West 253 291 17,500 3,360 Climbing Kansas City Center
07:55PM 37.8656 -97.7494 303° West 258 297 20,800 3,240 Climbing Kansas City Center
07:56PM 37.9470 -97.9963 297° West  Level Estimated
07:56PM 37.9139 -97.8414 304° West 261 300 24,200  Level Kansas City Center
07:57PM 37.9561 -97.9206 304° West 263 303 26,300 1,860 Climbing Kansas City Center
07:58PM 38.0050 -98.0164 303° West 289 333 28,100 1,680 Climbing Kansas City Center
07:59PM 38.0539 -98.1103 303° West 310 357 29,800 1,560 Climbing Kansas City Center
08:00PM 38.0964 -98.1919 303° West 306 352 31,400 1,440 Climbing Kansas City Center
08:01PM 38.1442 -98.2842 303° West 311 358 32,800 1,320 Climbing Kansas City Center
08:03PM 38.1914 -98.3756 303° West 311 358 34,200 1,320 Climbing Kansas City Center
08:04PM 38.2483 -98.4881 303° West 315 362 35,600 1,140 Climbing Kansas City Center
08:05PM 38.2967 -98.5817 303° West 317 365 36,600 1,020 Climbing Kansas City Center
08:06PM 38.3453 -98.6767 303° West 319 367 37,700 1,020 Climbing Kansas City Center
08:07PM 38.3933 -98.7717 303° West 320 368 38,700 1,020 Climbing Kansas City Center
08:08PM 38.4419 -98.8644 304° West 316 364 39,800 600 Climbing Kansas City Center
08:09PM 38.4886 -98.9578 303° West 313 360 40,000 60 Climbing Kansas City Center
08:10PM 38.5381 -99.0544 303° West 321 369 40,000  Level Kansas City Center
08:11PM 38.5861 -99.1544 302° West 328 377 40,000  Level Kansas City Center
08:12PM 38.6375 -99.2536 304° West 333 383 40,000  Level Kansas City Center
08:13PM 38.6958 -99.3703 303° West 327 376 40,000  Level Kansas City Center
08:14PM 38.7431 -99.4661 302° West 321 369 40,000  Level Kansas City Center
08:15PM 38.7889 -99.5578 303° West 316 364 40,000  Level Kansas City Center
08:16PM 38.8414 -99.6653 302° West 318 366 40,000  Level Kansas City Center
08:17PM 38.8869 -99.7575 302° West 319 367 40,000  Level Kansas City Center
08:18PM 38.9325 -99.8489 303° West 319 367 40,000  Level Kansas City Center
08:19PM 38.9769 -99.9417 302° West 321 369 40,000  Level Denver Center
08:20PM 39.0292 -100.0481 302° West 317 365 40,000  Level Denver Center
08:21PM 39.0742 -100.1389 303° West 315 362 40,000  Level Denver Center
08:22PM 39.1264 -100.2481 302° West 318 366 40,000  Level Denver Center
08:23PM 39.1711 -100.3394 302° West 316 364 40,000  Level Denver Center
08:24PM 39.2147 -100.4317 301° West 316 364 40,000  Level Denver Center
08:25PM 39.2656 -100.5361 302° West 310 357 40,000  Level Denver Center
08:26PM 39.3097 -100.6289 302° West 315 362 40,000  Level Denver Center
08:27PM 39.3617 -100.7367 302° West 317 365 40,000  Level Denver Center
08:28PM 39.4067 -100.8314 302° West 321 369 40,000  Level Denver Center
08:29PM 39.4519 -100.9269 302° West 324 373 40,000  Level Denver Center
08:30PM 39.5047 -101.0381 302° West 325 374 40,000  Level Denver Center
08:31PM 39.5503 -101.1336 302° West 326 375 40,000  Level Denver Center
08:32PM 39.6028 -101.2469 301° West 328 377 40,000  Level Denver Center
08:33PM 39.6486 -101.3425 302° West 327 376 40,000  Level Denver Center
08:34PM 39.7014 -101.4553 301° West 328 377 40,000  Level Denver Center
08:35PM 39.7461 -101.5511 301° West 325 374 40,000  Level Denver Center
08:36PM 39.7906 -101.6481 301° West 326 375 40,000  Level Denver Center
08:37PM 39.8433 -101.7594 302° West 324 373 40,000  Level Denver Center
08:38PM 39.8872 -101.8544 301° West 320 368 40,000  Level Denver Center
08:39PM 39.9378 -101.9656 301° West 319 367 40,000  Level Denver Center
08:40PM 39.9806 -102.0606 300° West 318 366 40,000  Level Denver Center
08:41PM 40.0244 -102.1556 301° West 320 368 40,000  Level Denver Center
08:42PM 40.0736 -102.2653 300° West 314 361 40,000  Level Denver Center
08:43PM 40.1181 -102.3600 302° West 317 365 40,000  Level Denver Center
08:44PM 40.1683 -102.4714 301° West 319 367 40,000  Level Denver Center
08:46PM 40.2119 -102.5683 301° West 321 369 40,000 -360 Level Denver Center
08:47PM 40.2561 -102.6678 300° West 328 377 39,300 -840 Descending Denver Center
08:48PM 40.3058 -102.7803 300° West 342 394 38,400 -840 Descending Denver Center
08:49PM 40.3550 -102.8892 301° West 346 398 37,600 -840 Descending Denver Center
08:50PM 40.4019 -102.9958 300° West 341 392 36,800 -960 Descending Denver Center
08:51PM 40.4592 -103.1225 301° West 336 387 35,700 -1,080 Descending Denver Center
08:52PM 40.5044 -103.2258 300° West 329 379 34,700 -1,020 Descending Denver Center
08:53PM 40.5494 -103.3275 300° West 324 373 33,700 -1,020 Descending Denver Center
08:54PM 40.5942 -103.4292 300° West 323 372 32,700 -1,200 Descending Denver Center
08:55PM 40.6381 -103.5289 300° West 318 366 31,300 -1,560 Descending Denver Center
08:56PM 40.6819 -103.6303 300° West 319 367 29,500 -1,860 Descending Denver Center
08:57PM 40.7233 -103.7275 299° West 306 352 27,500 -2,160 Descending Denver Center
08:58PM 40.7714 -103.8356 300° West 289 333 25,100 -1,740 Descending Denver Center
08:59PM 40.8083 -103.9231 299° West 278 320 24,000 -1,500 Descending Denver Center
09:00PM 40.8464 -104.0100 300° West 275 316 22,100 -1,920 Descending Denver Center
09:01PM 40.8822 -104.0942 299° West 265 305 20,100 -1,860 Descending Denver Center
09:02PM 40.9150 -104.1703 300° West 246 283 18,300 -1,860 Descending Denver Center
09:03PM 40.9497 -104.2492 300° West 247 284 16,400 -2,040 Descending Denver Center
09:04PM 40.9931 -104.3497 300° West 257 296 14,100 -2,100 Descending Denver Center
09:05PM 41.0264 -104.4317 298° West 256 295 12,200 -1,920 Descending Denver Center
09:07PM 41.0720 -104.5873 291° West  Level FlightAware Approximate
09:14PM 41.1500 -104.8000 300° West  Level FlightAware Approximate
09:15PM 41.1556 -104.8105 300° West  Level Estimated
09:16PM 41.1556 -104.8105 300° West  Level Estimated
09:17PM 41.1556 -104.8105 300° West  Level Estimated
09:18PM 41.1556 -104.8105 300° West  Level Estimated
09:19PM 41.1556 -104.8105 300° West  Level Estimated